Time;durP1;ratioP1;P1;durP2;ratioP2;P2;SDS_P1;SDS_P2;PMS_P1;PMS_P2;Temp;Humidity;BMP_temperature;BMP_pressure;BME280_temperature;BME280_humidity;BME280_pressure;Samples;Min_cycle;Max_cycle;Signal;HPM_P1;HPM_P2
2024/01/18 00:01:39;;;;;;;16.77;9.23;;;;;;;3.72;55.22;99282.53;4965576;29;20051;-67
2024/01/18 00:04:07;;;;;;;15.60;10.18;;;;;;;3.69;55.46;99281.09;4964215;29;20077;-68
2024/01/18 00:06:35;;;;;;;16.10;9.10;;;;;;;3.66;55.45;99278.88;4948727;29;20075;-68
2024/01/18 00:09:03;;;;;;;15.25;9.43;;;;;;;3.64;55.82;99283.59;4954302;29;20055;-68
2024/01/18 00:11:31;;;;;;;19.38;10.52;;;;;;;3.64;55.54;99294.22;4963886;29;20051;-68
2024/01/18 00:14:00;;;;;;;19.67;10.10;;;;;;;3.65;55.17;99292.38;4965628;29;20126;-68
2024/01/18 00:16:28;;;;;;;18.90;10.57;;;;;;;3.66;55.47;99289.50;4962720;28;20067;-68
2024/01/18 00:18:57;;;;;;;16.33;11.18;;;;;;;3.67;55.96;99298.28;4965326;29;20053;-68
2024/01/18 00:21:25;;;;;;;17.52;9.13;;;;;;;3.71;55.60;99296.84;4962871;29;20057;-68
2024/01/18 00:23:53;;;;;;;14.82;10.55;;;;;;;3.70;55.82;99303.19;4965863;29;20047;-68
2024/01/18 00:26:21;;;;;;;16.95;9.25;;;;;;;3.67;55.48;99315.03;4961195;29;20104;-68
2024/01/18 00:28:49;;;;;;;21.52;10.27;;;;;;;3.65;55.64;99317.09;4961245;28;20062;-68
2024/01/18 00:31:17;;;;;;;21.35;10.48;;;;;;;3.63;56.11;99318.34;4964661;29;20051;-68
2024/01/18 00:33:45;;;;;;;18.52;10.95;;;;;;;3.60;55.83;99325.72;4965067;29;20111;-68
2024/01/18 00:36:14;;;;;;;19.83;10.45;;;;;;;3.63;56.08;99321.81;4960074;29;20609;-67
2024/01/18 00:38:42;;;;;;;20.88;10.88;;;;;;;3.64;55.89;99317.31;4965712;28;20075;-68
2024/01/18 00:41:10;;;;;;;16.95;10.25;;;;;;;3.61;55.48;99313.25;4964999;29;20055;-67
2024/01/18 00:43:39;;;;;;;15.63;9.77;;;;;;;3.61;55.77;99318.56;4955726;29;20055;-68
2024/01/18 00:46:06;;;;;;;19.42;11.05;;;;;;;3.67;55.36;99325.66;4964655;29;20043;-68
2024/01/18 00:48:34;;;;;;;15.98;9.73;;;;;;;3.67;56.09;99323.00;4962722;29;20051;-68
2024/01/18 00:51:02;;;;;;;17.70;9.50;;;;;;;3.61;55.97;99326.53;4946303;29;20075;-68
2024/01/18 00:53:31;;;;;;;20.30;10.13;;;;;;;3.59;56.46;99332.06;4944825;29;20052;-68
2024/01/18 00:55:59;;;;;;;20.08;11.05;;;;;;;3.59;56.33;99334.72;4944343;29;20048;-68
2024/01/18 00:58:27;;;;;;;18.10;10.27;;;;;;;3.60;55.71;99346.16;4942861;29;20082;-68
2024/01/18 01:00:55;;;;;;;16.10;10.32;;;;;;;3.61;56.35;99353.09;4945586;29;20048;-68
2024/01/18 01:03:23;;;;;;;17.00;10.15;;;;;;;3.59;55.91;99348.00;4941921;29;20112;-68
2024/01/18 01:05:51;;;;;;;22.73;11.13;;;;;;;3.58;56.68;99350.88;4941498;29;20047;-68
2024/01/18 01:08:18;;;;;;;16.65;10.40;;;;;;;3.57;55.71;99336.75;4946500;29;20051;-68
2024/01/18 01:10:48;;;;;;;19.20;10.68;;;;;;;3.56;55.87;99343.09;4942532;29;20047;-67
2024/01/18 01:13:16;;;;;;;17.50;10.15;;;;;;;3.57;56.57;99346.56;4946176;29;20047;-68
2024/01/18 01:15:43;;;;;;;15.20;9.30;;;;;;;3.58;56.62;99348.19;4943486;29;20098;-67
2024/01/18 01:18:11;;;;;;;16.45;10.02;;;;;;;3.57;56.69;99347.38;4937257;29;20058;-67
2024/01/18 01:20:39;;;;;;;19.63;10.55;;;;;;;3.56;55.85;99351.06;4945900;29;20484;-68
2024/01/18 01:23:07;;;;;;;18.10;9.93;;;;;;;3.56;56.68;99347.59;4940103;29;20075;-67
2024/01/18 01:25:35;;;;;;;19.52;9.85;;;;;;;3.55;56.84;99356.59;4945135;29;20056;-68
2024/01/18 01:28:05;;;;;;;17.80;11.13;;;;;;;3.54;56.69;99355.78;4937440;29;20108;-67
2024/01/18 01:30:33;;;;;;;16.48;9.73;;;;;;;3.53;56.63;99367.44;4936477;29;20064;-67
2024/01/18 01:33:01;;;;;;;19.52;10.00;;;;;;;3.53;55.94;99366.63;4944051;29;20079;-67
2024/01/18 01:35:30;;;;;;;20.90;10.43;;;;;;;3.56;56.67;99372.31;4945914;29;20084;-67
2024/01/18 01:37:58;;;;;;;16.67;9.85;;;;;;;3.56;56.32;99371.50;4941801;29;20047;-67
2024/01/18 01:40:25;;;;;;;18.50;11.02;;;;;;;3.52;56.11;99380.94;4937775;29;20052;-68
2024/01/18 01:42:53;;;;;;;17.42;10.73;;;;;;;3.52;56.26;99380.94;4939451;29;20048;-68
2024/01/18 01:45:23;;;;;;;19.65;10.90;;;;;;;3.53;56.18;99379.91;4945212;29;20059;-68
2024/01/18 01:47:51;;;;;;;21.50;11.65;;;;;;;3.53;56.26;99382.56;4945449;29;20048;-68
2024/01/18 01:50:20;;;;;;;14.80;9.52;;;;;;;3.51;56.65;99382.78;4960977;28;20055;-68
2024/01/18 01:52:48;;;;;;;17.48;10.05;;;;;;;3.51;57.02;99385.44;4964779;29;20051;-67
2024/01/18 01:55:17;;;;;;;16.42;10.25;;;;;;;3.52;57.00;99381.75;4965847;28;20051;-67
2024/01/18 01:57:46;;;;;;;19.38;10.65;;;;;;;3.52;56.48;99387.06;4958852;28;20055;-67
2024/01/18 02:00:15;;;;;;;16.02;9.63;;;;;;;3.53;56.44;99382.56;4964398;29;20118;-68
2024/01/18 02:02:45;;;;;;;17.85;10.27;;;;;;;3.53;57.23;99387.88;4962985;29;20055;-68
2024/01/18 02:05:14;;;;;;;16.08;10.38;;;;;;;3.52;56.73;99388.91;4962024;29;20102;-67
2024/01/18 02:07:43;;;;;;;15.18;10.50;;;;;;;3.52;56.88;99392.38;4963924;29;20445;-68
2024/01/18 02:10:11;;;;;;;17.05;10.77;;;;;;;3.51;56.94;99390.75;4964202;29;20087;-67
2024/01/18 02:12:39;;;;;;;18.65;9.95;;;;;;;3.51;56.67;99390.75;4959748;29;20111;-67
2024/01/18 02:15:08;;;;;;;18.40;9.77;;;;;;;3.51;57.30;99381.97;4964628;29;20047;-68
2024/01/18 02:17:37;;;;;;;17.73;9.98;;;;;;;3.52;57.09;99388.91;4958847;29;20048;-67
2024/01/18 02:20:07;;;;;;;17.08;10.45;;;;;;;3.52;57.40;99387.06;4961402;29;20110;-68
2024/01/18 02:22:41;;;;;;;17.58;10.10;;;;;;;3.53;57.24;99382.56;4965405;28;20051;-68
2024/01/18 02:25:25;;;;;;;18.73;11.85;;;;;;;3.50;56.79;99375.00;4967136;29;20083;-68
2024/01/18 02:27:54;;;;;;;19.95;10.70;;;;;;;3.52;56.74;99381.75;4954365;29;20098;-67
2024/01/18 02:30:22;;;;;;;18.35;10.43;;;;;;;3.51;57.25;99384.59;4959867;29;20054;-68
2024/01/18 02:32:52;;;;;;;16.33;10.00;;;;;;;3.52;57.55;99380.94;4968505;29;20051;-67
2024/01/18 02:35:21;;;;;;;15.80;9.50;;;;;;;3.52;56.82;99384.41;4964931;29;20059;-67
2024/01/18 02:37:49;;;;;;;17.15;10.10;;;;;;;3.50;56.70;99389.09;4967798;29;20361;-67
2024/01/18 02:40:17;;;;;;;17.73;10.35;;;;;;;3.47;57.24;99383.41;4967285;29;20047;-68
2024/01/18 02:42:47;;;;;;;20.65;10.90;;;;;;;3.49;56.84;99397.28;4968317;29;20048;-68
2024/01/18 02:45:15;;;;;;;19.30;10.32;;;;;;;3.47;56.91;99397.50;4966946;29;20062;-67
2024/01/18 02:47:43;;;;;;;16.38;9.38;;;;;;;3.47;56.76;99397.50;4967529;29;20051;-68
2024/01/18 02:50:11;;;;;;;15.23;10.05;;;;;;;3.49;57.39;99397.28;4967687;29;20059;-68
2024/01/18 02:52:39;;;;;;;18.13;10.35;;;;;;;3.50;57.25;99398.91;4968120;29;20047;-68
2024/01/18 02:55:08;;;;;;;17.52;9.88;;;;;;;3.50;57.70;99404.22;4964641;29;20091;-68
2024/01/18 02:57:35;;;;;;;15.00;9.65;;;;;;;3.48;57.50;99400.97;4966112;28;20046;-68
2024/01/18 03:00:06;;;;;;;15.38;9.93;;;;;;;3.46;57.22;99403.06;4968138;28;20051;-68
2024/01/18 03:02:34;;;;;;;18.25;10.77;;;;;;;3.45;57.12;99406.72;4966262;29;20059;-67
2024/01/18 03:05:02;;;;;;;16.13;9.90;;;;;;;3.45;57.75;99406.72;4964379;29;20047;-68
2024/01/18 03:07:30;;;;;;;18.33;10.30;;;;;;;3.43;57.43;99414.91;4967652;29;20106;-68
2024/01/18 03:09:57;;;;;;;16.48;10.02;;;;;;;3.44;57.79;99415.72;4967119;29;20062;-68
2024/01/18 03:12:25;;;;;;;17.38;10.60;;;;;;;3.44;57.38;99403.25;4967553;29;20051;-68
2024/01/18 03:14:53;;;;;;;15.52;9.25;;;;;;;3.47;57.79;99405.47;4966468;29;20071;-68
2024/01/18 03:17:22;;;;;;;18.45;9.98;;;;;;;3.50;57.06;99412.19;4965257;29;20083;-68
2024/01/18 03:19:50;;;;;;;19.55;10.93;;;;;;;3.49;57.56;99411.38;4964614;29;20139;-68
2024/01/18 03:22:18;;;;;;;16.90;10.00;;;;;;;3.47;57.78;99416.09;4961297;29;20493;-68
2024/01/18 03:24:46;;;;;;;15.40;9.63;;;;;;;3.45;57.20;99417.34;4966767;29;20051;-67
2024/01/18 03:27:14;;;;;;;16.98;9.75;;;;;;;3.46;57.97;99424.28;4960462;28;20043;-68
2024/01/18 03:29:42;;;;;;;17.40;10.70;;;;;;;3.48;57.65;99419.56;4966591;29;20051;-68
2024/01/18 03:32:09;;;;;;;13.75;8.48;;;;;;;3.48;57.93;99411.59;4966331;29;20047;-68
2024/01/18 03:34:38;;;;;;;19.98;10.43;;;;;;;3.46;57.85;99416.34;4961387;28;20158;-68
2024/01/18 03:37:06;;;;;;;17.60;9.98;;;;;;;3.46;57.46;99413.69;4965222;29;20054;-68
2024/01/18 03:39:36;;;;;;;17.42;10.40;;;;;;;3.50;57.67;99425.47;4966784;29;20123;-67
2024/01/18 03:42:04;;;;;;;18.88;11.07;;;;;;;3.44;57.98;99421.84;4963363;29;20079;-68
2024/01/18 03:44:34;;;;;;;18.98;10.40;;;;;;;3.44;57.86;99418.38;4963597;29;20055;-69
2024/01/18 03:47:02;;;;;;;18.30;10.32;;;;;;;3.46;57.29;99421.66;4965542;29;20047;-68
2024/01/18 03:49:30;;;;;;;18.67;9.60;;;;;;;3.46;57.97;99419.81;4962969;29;20058;-68
2024/01/18 03:51:59;;;;;;;18.77;10.30;;;;;;;3.43;58.18;99427.38;4966951;29;20055;-68
2024/01/18 03:54:27;;;;;;;19.63;10.32;;;;;;;3.49;57.50;99431.81;4961199;29;20079;-69
2024/01/18 03:56:55;;;;;;;18.33;9.45;;;;;;;3.50;57.29;99436.91;4953644;28;20043;-68
2024/01/18 03:59:24;;;;;;;18.38;10.18;;;;;;;3.46;57.70;99435.75;4957899;29;20047;-68
2024/01/18 04:01:52;;;;;;;18.15;9.90;;;;;;;3.44;57.93;99443.09;4965620;29;20062;-68
2024/01/18 04:04:19;;;;;;;17.30;9.90;;;;;;;3.42;58.29;99450.47;4964047;29;20094;-68
2024/01/18 04:06:48;;;;;;;17.58;9.77;;;;;;;3.42;58.10;99447.00;4965235;29;20043;-68
2024/01/18 04:09:17;;;;;;;22.52;10.85;;;;;;;3.42;58.44;99439.84;4966515;29;20089;-68
2024/01/18 04:11:45;;;;;;;16.75;9.07;;;;;;;3.43;58.14;99449.44;4954868;29;20054;-68
2024/01/18 04:14:13;;;;;;;18.80;10.65;;;;;;;3.44;57.83;99442.28;4965342;29;20102;-68
2024/01/18 04:16:42;;;;;;;17.77;10.57;;;;;;;3.42;57.49;99449.66;4965473;29;20066;-68
2024/01/18 04:19:10;;;;;;;13.23;9.27;;;;;;;3.39;58.07;99458.03;4964716;29;20051;-68
2024/01/18 04:21:38;;;;;;;19.80;10.43;;;;;;;3.37;57.64;99466.19;4966172;29;20107;-68
2024/01/18 04:24:06;;;;;;;15.73;9.40;;;;;;;3.35;58.47;99462.94;4965909;29;20094;-68
2024/01/18 04:26:36;;;;;;;18.92;10.13;;;;;;;3.35;58.13;99470.09;4960145;29;20078;-70
2024/01/18 04:29:04;;;;;;;17.35;10.25;;;;;;;3.34;58.37;99471.13;4962978;28;20070;-70
2024/01/18 04:31:31;;;;;;;15.15;9.73;;;;;;;3.35;58.40;99465.59;4965710;29;20051;-70
2024/01/18 04:33:59;;;;;;;16.15;9.98;;;;;;;3.35;58.19;99468.25;4959347;29;20477;-70
2024/01/18 04:36:27;;;;;;;15.30;9.57;;;;;;;3.35;57.83;99473.56;4966077;29;20420;-70
2024/01/18 04:38:55;;;;;;;16.73;9.20;;;;;;;3.35;58.10;99470.91;4961982;29;20144;-69
2024/01/18 04:41:23;;;;;;;16.52;9.00;;;;;;;3.35;57.74;99475.41;4964909;29;20054;-70
2024/01/18 04:43:52;;;;;;;14.70;9.82;;;;;;;3.34;58.29;99471.13;4965309;29;20094;-70
2024/01/18 04:46:20;;;;;;;16.00;9.27;;;;;;;3.35;58.06;99480.72;4964892;28;20066;-70
2024/01/18 04:48:48;;;;;;;16.92;9.90;;;;;;;3.31;58.14;99484.81;4965081;29;20115;-70
2024/01/18 04:51:15;;;;;;;13.45;8.65;;;;;;;3.34;58.11;99501.13;4955873;29;20051;-70
2024/01/18 04:53:43;;;;;;;18.60;9.25;;;;;;;3.31;58.51;99496.25;4965400;29;20047;-69
2024/01/18 04:56:11;;;;;;;16.20;9.30;;;;;;;3.31;58.25;99498.09;4964927;28;20417;-70
2024/01/18 04:58:39;;;;;;;17.17;10.05;;;;;;;3.31;58.35;99506.03;4960759;29;20054;-69
2024/01/18 05:01:11;;;;;;;15.68;8.98;;;;;;;3.31;58.22;99508.72;4964978;29;20062;-69
2024/01/18 05:03:39;;;;;;;15.30;9.20;;;;;;;3.31;57.98;99506.03;4951116;29;20079;-69
2024/01/18 05:06:09;;;;;;;15.80;8.90;;;;;;;3.32;58.73;99513.81;4963520;29;20079;-69
2024/01/18 05:08:37;;;;;;;15.20;9.68;;;;;;;3.27;58.40;99513.63;4965767;29;20564;-69
2024/01/18 05:11:04;;;;;;;16.75;9.23;;;;;;;3.32;58.41;99523.63;4963983;29;20051;-69
2024/01/18 05:13:32;;;;;;;14.93;9.55;;;;;;;3.31;58.28;99529.94;4959506;29;20461;-70
2024/01/18 05:16:01;;;;;;;18.10;9.50;;;;;;;3.31;58.32;99524.63;4964242;28;20042;-70
2024/01/18 05:18:30;;;;;;;16.67;9.40;;;;;;;3.25;58.69;99524.44;4964033;29;20057;-70
2024/01/18 05:20:58;;;;;;;16.35;9.48;;;;;;;3.25;58.14;99528.94;4965278;29;20047;-70
2024/01/18 05:23:26;;;;;;;18.17;9.52;;;;;;;3.24;58.27;99527.31;4958770;29;20100;-70
2024/01/18 05:25:55;;;;;;;19.38;9.23;;;;;;;3.22;58.51;99524.84;4963393;29;20055;-70
2024/01/18 05:28:23;;;;;;;18.13;8.80;;;;;;;3.21;58.62;99523.22;4960228;29;20093;-70
2024/01/18 05:30:51;;;;;;;15.38;8.25;;;;;;;3.22;58.12;99526.69;4964587;29;20047;-69
2024/01/18 05:33:19;;;;;;;15.43;8.50;;;;;;;3.21;57.99;99531.19;4965146;29;20154;-70
2024/01/18 05:35:49;;;;;;;12.88;8.73;;;;;;;3.21;58.51;99535.69;4965398;29;20082;-70
2024/01/18 05:38:17;;;;;;;22.35;8.90;;;;;;;3.22;57.72;99546.09;4956891;29;20465;-70
2024/01/18 05:40:45;;;;;;;13.63;8.15;;;;;;;3.21;58.39;99546.28;4965198;28;20047;-70
2024/01/18 05:43:13;;;;;;;13.35;8.50;;;;;;;3.19;57.67;99545.69;4965032;29;20062;-70
2024/01/18 05:45:41;;;;;;;15.30;9.20;;;;;;;3.21;58.52;99551.59;4963571;28;20051;-70
2024/01/18 05:48:09;;;;;;;16.58;9.68;;;;;;;3.20;57.59;99557.94;4961645;28;20051;-70
2024/01/18 05:50:37;;;;;;;15.73;8.65;;;;;;;3.18;58.54;99552.00;4947916;28;20119;-69
2024/01/18 05:53:06;;;;;;;16.10;9.30;;;;;;;3.17;58.44;99569.78;4943973;29;20509;-70
2024/01/18 05:55:34;;;;;;;15.10;8.45;;;;;;;3.17;58.23;99561.81;4928403;29;20047;-69
2024/01/18 05:58:02;;;;;;;15.35;8.23;;;;;;;3.16;58.48;99578.78;4943230;29;20059;-69
2024/01/18 06:00:29;;;;;;;15.95;8.75;;;;;;;3.16;57.82;99573.47;4948483;29;20047;-70
2024/01/18 06:02:58;;;;;;;12.25;7.50;;;;;;;3.16;58.27;99567.34;4948686;29;20048;-70
2024/01/18 06:05:26;;;;;;;14.80;8.25;;;;;;;3.15;58.20;99565.69;4945832;29;20043;-70
2024/01/18 06:08:02;;;;;;;12.13;7.82;;;;;;;3.08;58.13;99570.19;4948752;29;20063;-70
2024/01/18 06:10:33;;;;;;;15.50;8.45;;;;;;;3.14;58.41;99586.13;4940712;29;20058;-70
2024/01/18 06:13:01;;;;;;;14.85;8.95;;;;;;;3.12;58.25;99580.19;4933634;29;20132;-70
2024/01/18 06:15:30;;;;;;;15.80;8.25;;;;;;;3.12;57.78;99587.34;4948555;29;20088;-71
2024/01/18 06:18:03;;;;;;;16.65;8.15;;;;;;;3.10;57.92;99587.56;4946880;29;20489;-69
2024/01/18 06:20:32;;;;;;;15.00;7.55;;;;;;;3.07;57.92;99597.75;4947908;29;20589;-70
2024/01/18 06:23:00;;;;;;;16.60;9.15;;;;;;;3.21;57.79;99610.00;4948616;29;20059;-71
2024/01/18 06:25:28;;;;;;;15.57;7.85;;;;;;;3.37;57.00;99614.09;4947670;29;20044;-70
2024/01/18 06:27:57;;;;;;;15.05;8.02;;;;;;;3.53;56.75;99616.28;4947445;29;20059;-74
2024/01/18 06:30:28;;;;;;;17.33;8.07;;;;;;;3.67;55.87;99617.91;4946906;29;20084;-70
2024/01/18 06:32:57;;;;;;;14.10;7.75;;;;;;;3.80;55.97;99622.38;4947151;29;20115;-69
2024/01/18 06:35:25;;;;;;;11.45;6.93;;;;;;;3.95;55.24;99630.13;4949249;29;20131;-70
2024/01/18 06:37:53;;;;;;;14.13;7.75;;;;;;;4.12;55.13;99636.59;4942420;29;20048;-73
2024/01/18 06:40:23;;;;;;;11.85;7.65;;;;;;;4.26;54.62;99632.88;4946810;29;20092;-74
2024/01/18 06:42:51;;;;;;;18.13;8.65;;;;;;;4.37;54.38;99632.22;4948679;29;20465;-70
2024/01/18 06:45:20;;;;;;;17.50;7.03;;;;;;;4.48;53.52;99636.88;4948629;29;20054;-69
2024/01/18 06:47:48;;;;;;;14.90;8.10;;;;;;;4.46;53.98;99638.13;4594703;28;10000591;-69
2024/01/18 06:50:16;;;;;;;14.05;7.50;;;;;;;4.33;53.71;99638.16;4945272;29;20178;-69
2024/01/18 06:52:44;;;;;;;15.27;7.78;;;;;;;4.18;54.61;99646.41;4941841;29;20051;-70
2024/01/18 06:55:11;;;;;;;12.65;7.65;;;;;;;4.05;54.78;99651.75;4944605;29;20063;-69
2024/01/18 06:57:39;;;;;;;16.40;7.78;;;;;;;3.90;55.23;99644.03;4938328;29;20048;-67
2024/01/18 07:00:08;;;;;;;15.23;6.93;;;;;;;3.78;55.16;99654.47;4944216;29;20048;-67
2024/01/18 07:02:37;;;;;;;14.93;8.65;;;;;;;3.70;56.12;99656.53;4936015;29;20134;-67
2024/01/18 07:05:06;;;;;;;15.82;8.07;;;;;;;3.67;55.73;99667.56;4931232;29;20056;-66
2024/01/18 07:07:33;;;;;;;13.77;7.70;;;;;;;3.58;55.88;99662.47;4944759;29;20044;-67
2024/01/18 07:10:02;;;;;;;12.95;7.35;;;;;;;3.55;56.02;99672.69;4929698;29;20052;-65
2024/01/18 07:12:30;;;;;;;13.68;8.35;;;;;;;3.51;56.12;99679.44;4939431;29;20052;-69
2024/01/18 07:14:58;;;;;;;13.18;7.68;;;;;;;3.46;56.29;99681.91;4943295;29;20235;-68
2024/01/18 07:17:26;;;;;;;13.30;7.80;;;;;;;3.40;56.48;99691.50;4940915;29;20461;-68
2024/01/18 07:19:56;;;;;;;14.48;8.13;;;;;;;3.38;56.91;99674.16;4929504;29;20082;-68
2024/01/18 07:22:25;;;;;;;15.32;7.55;;;;;;;3.32;56.93;99686.41;4929816;29;20063;-69
2024/01/18 07:24:53;;;;;;;13.52;7.93;;;;;;;3.28;57.19;99693.13;4929484;29;20056;-68
2024/01/18 07:27:21;;;;;;;12.20;8.18;;;;;;;3.26;57.21;99693.34;4937672;29;20057;-68
2024/01/18 07:29:49;;;;;;;11.55;6.88;;;;;;;3.25;56.75;99696.19;4947355;29;20065;-68
2024/01/18 07:32:18;;;;;;;14.50;7.18;;;;;;;3.17;57.18;99689.25;4946382;29;20059;-68
2024/01/18 07:34:46;;;;;;;13.55;7.82;;;;;;;3.16;56.86;99700.88;4936227;29;20110;-68
2024/01/18 07:37:15;;;;;;;12.25;6.90;;;;;;;3.28;56.84;99711.72;4942042;29;20131;-68
2024/01/18 07:39:44;;;;;;;13.93;7.95;;;;;;;3.40;56.99;99706.63;4945795;29;20044;-68
2024/01/18 07:42:12;;;;;;;14.00;7.57;;;;;;;3.57;55.81;99711.31;4932297;29;20055;-68
2024/01/18 07:44:42;;;;;;;12.55;7.70;;;;;;;3.76;55.78;99720.28;4930941;29;20058;-68
2024/01/18 07:47:10;;;;;;;16.70;7.40;;;;;;;3.91;55.08;99715.59;4931912;29;20059;-68
2024/01/18 07:49:42;;;;;;;12.60;7.28;;;;;;;3.95;55.04;99725.81;4952198;28;20571;-68
2024/01/18 07:52:17;;;;;;;13.90;7.07;;;;;;;3.88;54.51;99726.63;4965381;28;20539;-68
2024/01/18 07:54:45;;;;;;;13.52;8.40;;;;;;;3.80;55.01;99736.66;4966557;28;20414;-68
2024/01/18 07:57:13;;;;;;;14.32;7.22;;;;;;;3.70;54.92;99734.41;4965694;28;20094;-68
2024/01/18 07:59:41;;;;;;;13.00;6.90;;;;;;;3.62;55.63;99744.41;4960731;28;20611;-68
2024/01/18 08:02:09;;;;;;;12.63;7.07;;;;;;;3.54;55.32;99745.44;4970178;28;20059;-68
2024/01/18 08:04:37;;;;;;;14.27;7.50;;;;;;;3.47;55.52;99742.75;4963076;28;20046;-68
2024/01/18 08:07:05;;;;;;;14.30;7.82;;;;;;;3.40;56.59;99754.44;4962465;28;20057;-68
2024/01/18 08:09:35;;;;;;;12.07;7.28;;;;;;;3.34;56.59;99758.72;4970853;28;20073;-68
2024/01/18 08:12:04;;;;;;;19.17;7.65;;;;;;;3.30;56.73;99761.97;4964110;28;20054;-68
2024/01/18 08:14:31;;;;;;;17.83;7.82;;;;;;;3.28;56.03;99769.31;4971713;28;20051;-68
2024/01/18 08:16:59;;;;;;;14.43;8.18;;;;;;;3.25;56.76;99771.34;4961455;28;20059;-69
2024/01/18 08:19:27;;;;;;;13.05;7.95;;;;;;;3.25;56.51;99778.50;4974631;28;20121;-68
2024/01/18 08:21:55;;;;;;;16.08;7.97;;;;;;;3.27;56.36;99773.81;4970690;28;20498;-68
2024/01/18 08:24:23;;;;;;;11.93;6.85;;;;;;;3.25;56.39;99779.31;4974126;28;20113;-68
2024/01/18 08:26:53;;;;;;;16.27;7.50;;;;;;;3.24;56.88;99774.22;4964809;28;20487;-68
2024/01/18 08:29:20;;;;;;;13.95;6.90;;;;;;;3.22;56.81;99779.72;4965665;28;20122;-69
2024/01/18 08:31:48;;;;;;;12.55;7.22;;;;;;;3.21;56.82;99799.31;4959098;28;20118;-68
2024/01/18 08:34:16;;;;;;;15.23;7.45;;;;;;;3.21;56.09;99799.31;4967384;28;20070;-68
2024/01/18 08:36:44;;;;;;;15.88;7.60;;;;;;;3.20;56.12;99807.50;4968083;28;20078;-68
2024/01/18 08:39:12;;;;;;;10.95;6.63;;;;;;;3.16;56.47;99807.06;4962910;28;20179;-69
2024/01/18 08:41:40;;;;;;;12.57;6.30;;;;;;;3.15;56.89;99813.41;4975204;28;20047;-68
2024/01/18 08:44:09;;;;;;;11.32;6.05;;;;;;;3.14;56.68;99816.25;4969807;28;20047;-68
2024/01/18 08:46:39;;;;;;;15.30;6.57;;;;;;;3.13;57.21;99823.41;4963022;28;20051;-68
2024/01/18 08:49:08;;;;;;;13.10;6.50;;;;;;;3.08;56.91;99820.50;4967015;28;20059;-68
2024/01/18 08:51:35;;;;;;;12.18;6.18;;;;;;;3.16;56.19;99830.97;4946080;29;20043;-68
2024/01/18 08:54:07;;;;;;;15.32;7.50;;;;;;;3.21;56.93;99830.38;4936500;29;20210;-67
2024/01/18 08:56:35;;;;;;;12.48;6.80;;;;;;;3.23;56.23;99838.94;4937992;29;20059;-67
2024/01/18 08:59:03;;;;;;;14.85;6.93;;;;;;;3.23;56.84;99834.47;4942969;29;20139;-66
2024/01/18 09:01:32;;;;;;;12.65;6.90;;;;;;;3.24;56.22;99849.38;4939766;29;20044;-67
2024/01/18 09:04:00;;;;;;;14.27;6.47;;;;;;;3.39;55.83;99859.03;4949890;29;20126;-68
2024/01/18 09:06:29;;;;;;;11.50;6.00;;;;;;;3.52;56.41;99862.50;4941911;29;20417;-68
2024/01/18 09:08:57;;;;;;;10.07;5.65;;;;;;;3.70;55.37;99859.28;4941028;29;20162;-68
2024/01/18 09:11:24;;;;;;;11.10;5.93;;;;;;;3.88;55.31;99867.50;4941889;29;20066;-68
2024/01/18 09:13:52;;;;;;;11.05;5.95;;;;;;;4.04;54.16;99863.63;4942732;29;20062;-67
2024/01/18 09:16:20;;;;;;;17.30;7.72;;;;;;;4.19;54.64;99874.06;4941563;29;20052;-68
2024/01/18 09:18:50;;;;;;;12.98;6.22;;;;;;;4.35;54.13;99864.84;4939125;29;20525;-68
2024/01/18 09:21:41;;;;;;;13.98;6.20;;;;;;;4.47;53.33;99880.00;4941571;29;20568;-67
2024/01/18 09:24:09;;;;;;;12.85;6.00;;;;;;;4.65;52.77;99881.19;4941794;29;20055;-68
2024/01/18 09:26:37;;;;;;;9.98;5.60;;;;;;;4.75;52.86;99878.94;4939620;29;20504;-67
2024/01/18 09:29:04;;;;;;;14.30;5.25;;;;;;;4.86;52.61;99891.59;4934917;29;20052;-67
2024/01/18 09:31:32;;;;;;;9.85;5.05;;;;;;;4.99;52.19;99898.75;4940538;29;20481;-67
2024/01/18 09:34:11;;;;;;;16.10;6.13;;;;;;;5.08;52.13;99894.84;4942025;29;20055;-67
2024/01/18 09:36:38;;;;;;;9.88;5.25;;;;;;;5.09;51.75;99899.94;4942074;29;20055;-68
2024/01/18 09:39:08;;;;;;;12.75;4.80;;;;;;;5.13;51.67;99909.16;4935762;29;20087;-67
2024/01/18 09:41:36;;;;;;;10.55;6.05;;;;;;;5.13;51.80;99913.66;4941265;29;20074;-67
2024/01/18 09:44:05;;;;;;;10.93;4.93;;;;;;;5.15;51.56;99915.09;4942182;29;20058;-67
2024/01/18 09:46:33;;;;;;;11.88;4.90;;;;;;;5.18;51.75;99924.50;4940084;29;20103;-67
2024/01/18 09:49:00;;;;;;;9.05;4.78;;;;;;;5.23;51.79;99927.34;4941240;29;20052;-67
2024/01/18 09:51:33;;;;;;;10.48;4.97;;;;;;;5.23;51.51;99943.31;4959193;29;20141;-67
2024/01/18 09:54:01;;;;;;;8.38;4.53;;;;;;;5.30;51.64;99941.44;4956753;28;20059;-66
2024/01/18 09:56:30;;;;;;;9.88;5.15;;;;;;;5.27;51.45;99951.72;4957641;28;20051;-68
2024/01/18 09:58:59;;;;;;;12.13;4.68;;;;;;;5.25;51.71;99954.56;4964363;28;20126;-67
2024/01/18 10:01:27;;;;;;;7.38;4.13;;;;;;;5.27;51.69;99957.03;4968588;28;20043;-66
2024/01/18 10:03:55;;;;;;;9.40;5.05;;;;;;;5.23;51.47;99965.44;4961081;29;20090;-67
2024/01/18 10:06:23;;;;;;;8.07;4.22;;;;;;;5.27;51.62;99968.50;4963154;29;20154;-67
2024/01/18 10:08:53;;;;;;;7.30;4.43;;;;;;;5.28;51.36;99982.66;4957734;29;20055;-70
2024/01/18 10:11:21;;;;;;;7.82;4.05;;;;;;;5.28;51.50;99982.66;4955363;29;20047;-68
2024/01/18 10:13:52;;;;;;;9.57;4.40;;;;;;;5.34;51.26;99984.47;4964187;29;20366;-69
2024/01/18 10:16:28;;;;;;;8.80;4.50;;;;;;;5.36;51.58;99985.91;4962604;29;20047;-69
2024/01/18 10:18:56;;;;;;;8.60;3.97;;;;;;;5.35;51.59;99991.44;4964725;29;20043;-69
2024/01/18 10:21:25;;;;;;;7.25;3.65;;;;;;;5.25;52.06;100007.84;4963429;29;20051;-69
2024/01/18 10:23:55;;;;;;;12.85;4.07;;;;;;;5.15;52.50;100015.47;4947045;29;20048;-69
2024/01/18 10:26:23;;;;;;;12.40;3.90;;;;;;;4.99;52.74;100010.56;4959338;29;20059;-72
2024/01/18 10:28:51;;;;;;;7.78;3.90;;;;;;;4.81;53.11;100019.19;4954676;28;20072;-72
2024/01/18 10:31:18;;;;;;;8.68;3.92;;;;;;;4.74;53.36;100007.72;4957491;29;20055;-72
2024/01/18 10:33:47;;;;;;;12.27;5.03;;;;;;;4.49;54.75;100012.81;4964128;29;20051;-73
2024/01/18 10:36:15;;;;;;;7.72;3.40;;;;;;;4.51;54.43;100030.22;4960459;29;20096;-72
2024/01/18 10:38:43;;;;;;;11.32;4.05;;;;;;;4.45;54.73;100028.34;4958349;29;20074;-74
2024/01/18 10:41:19;;;;;;;9.90;3.58;;;;;;;4.32;54.43;100031.00;4962667;28;20565;-73
2024/01/18 10:43:48;;;;;;;6.50;3.40;;;;;;;4.29;54.89;100030.56;4963731;28;20496;-74
2024/01/18 10:46:17;;;;;;;10.88;3.60;;;;;;;4.31;55.04;100031.19;4964119;29;20059;-68
2024/01/18 10:48:45;;;;;;;11.23;4.22;;;;;;;4.23;55.54;100026.88;4962966;29;20192;-69
2024/01/18 10:51:13;;;;;;;6.78;3.83;;;;;;;4.18;55.12;100046.09;4959479;29;20088;-68
2024/01/18 10:53:42;;;;;;;8.70;3.78;;;;;;;4.19;55.30;100039.75;4962533;29;20055;-71
2024/01/18 10:56:12;;;;;;;7.35;3.22;;;;;;;4.11;55.99;100055.06;4962777;29;20059;-69
2024/01/18 10:58:41;;;;;;;7.57;3.45;;;;;;;4.01;55.89;100059.94;4962404;29;20043;-69
2024/01/18 11:01:09;;;;;;;11.48;4.00;;;;;;;4.00;55.71;100051.13;4960754;28;20050;-67
2024/01/18 11:03:38;;;;;;;11.38;3.45;;;;;;;4.02;55.69;100061.56;4962037;29;20054;-69
2024/01/18 11:06:09;;;;;;;9.25;3.88;;;;;;;4.01;55.64;100065.25;4962349;29;20085;-69
2024/01/18 11:08:39;;;;;;;9.82;3.65;;;;;;;4.00;56.37;100061.78;4961645;29;20102;-68
2024/01/18 11:11:07;;;;;;;6.63;3.25;;;;;;;3.96;56.54;100068.50;4965380;28;20497;-69
2024/01/18 11:13:36;;;;;;;15.20;4.15;;;;;;;3.98;56.20;100070.97;4961437;29;20586;-68
2024/01/18 11:16:07;;;;;;;9.98;4.40;;;;;;;3.95;56.52;100069.53;4963753;29;20051;-69
2024/01/18 11:18:35;;;;;;;7.38;3.35;;;;;;;3.97;56.59;100078.13;4963614;29;20059;-68
2024/01/18 11:21:08;;;;;;;8.02;2.78;;;;;;;3.97;56.42;100078.13;4961607;29;20233;-69
2024/01/18 11:23:40;;;;;;;6.53;2.63;;;;;;;3.95;56.87;100082.00;4961766;29;20585;-68
2024/01/18 11:26:18;;;;;;;7.65;3.80;;;;;;;3.94;56.91;100078.50;4958237;29;20059;-69
2024/01/18 11:28:46;;;;;;;6.53;2.95;;;;;;;3.93;56.73;100082.19;4616576;28;9999822;-70
2024/01/18 11:31:16;;;;;;;5.97;3.53;;;;;;;3.91;57.02;100084.22;4962965;29;20059;-68
2024/01/18 11:33:45;;;;;;;8.13;2.88;;;;;;;3.94;56.04;100094.47;4953932;29;20060;-68
2024/01/18 11:36:15;;;;;;;7.72;3.00;;;;;;;3.96;56.17;100100.41;4962852;29;20436;-68
2024/01/18 11:38:46;;;;;;;7.40;2.80;;;;;;;3.93;56.38;100101.63;4962567;29;20063;-68